createdAt,value
2024-03-28T00:01:09.146Z,11.00
2024-03-28T00:06:11.810Z,11.20
2024-03-28T00:11:14.406Z,7.90
2024-03-28T00:16:17.003Z,10.40
2024-03-28T00:21:19.684Z,10.00
2024-03-28T00:26:22.208Z,16.40
2024-03-28T00:31:24.920Z,13.20
2024-03-28T00:36:27.546Z,10.30
2024-03-28T00:41:30.150Z,10.70
2024-03-28T00:46:32.782Z,12.90
2024-03-28T00:51:35.324Z,8.70
2024-03-28T00:56:38.036Z,8.50
2024-03-28T01:01:41.104Z,8.80
2024-03-28T01:06:43.737Z,14.10
2024-03-28T01:11:46.318Z,10.90
2024-03-28T01:16:51.403Z,8.90
2024-03-28T01:21:54.068Z,7.10
2024-03-28T01:26:57.696Z,10.10
2024-03-28T01:32:00.325Z,8.30
2024-03-28T01:37:03.077Z,10.80
2024-03-28T01:42:05.662Z,12.10
2024-03-28T01:47:25.861Z,9.20
2024-03-28T01:52:31.850Z,9.70
2024-03-28T01:57:35.111Z,12.50
2024-03-28T02:02:41.355Z,13.00
2024-03-28T02:07:43.962Z,13.90
2024-03-28T02:12:46.778Z,10.20
2024-03-28T02:17:50.953Z,12.70
2024-03-28T02:22:53.558Z,11.80
2024-03-28T02:27:56.222Z,8.00
2024-03-28T02:32:59.117Z,9.10
2024-03-28T02:38:01.786Z,12.20
2024-03-28T02:43:04.677Z,13.00
2024-03-28T02:48:09.145Z,7.60
2024-03-28T02:53:11.885Z,8.50
2024-03-28T02:58:14.442Z,10.00
2024-03-28T03:03:17.033Z,10.80
2024-03-28T03:08:19.839Z,12.70
2024-03-28T03:13:22.600Z,11.00
2024-03-28T03:18:27.977Z,11.80
2024-03-28T03:23:38.796Z,10.00
2024-03-28T03:29:00.182Z,10.10
2024-03-28T03:34:21.562Z,15.70
2024-03-28T03:39:24.920Z,8.20
2024-03-28T03:44:28.308Z,10.10
2024-03-28T03:49:31.046Z,7.30
2024-03-28T03:54:33.750Z,10.00
2024-03-28T03:59:38.338Z,9.90
2024-03-28T04:04:41.313Z,8.30
2024-03-28T04:09:44.010Z,9.30
2024-03-28T04:14:47.259Z,11.30
2024-03-28T04:19:50.103Z,10.50
2024-03-28T04:24:54.707Z,11.50
2024-03-28T04:30:01.865Z,11.30
2024-03-28T04:35:05.884Z,11.20
2024-03-28T04:40:10.282Z,8.60
2024-03-28T04:45:14.096Z,9.10
2024-03-28T04:50:18.174Z,12.30
2024-03-28T04:55:21.624Z,11.40
2024-03-28T05:00:25.695Z,12.70
2024-03-28T05:05:28.648Z,10.90
2024-03-28T05:10:31.548Z,9.50
2024-03-28T05:15:35.631Z,9.30
2024-03-28T05:20:38.276Z,9.20
2024-03-28T05:25:41.019Z,15.00
2024-03-28T05:30:43.848Z,18.70
2024-03-28T05:35:47.039Z,11.00
2024-03-28T05:40:49.704Z,15.80
2024-03-28T05:45:52.351Z,12.20
2024-03-28T05:50:55.490Z,11.00
2024-03-28T05:55:58.192Z,13.00
2024-03-28T06:01:00.974Z,11.10
2024-03-28T06:06:04.320Z,13.90
2024-03-28T06:11:07.418Z,15.00
2024-03-28T06:16:11.431Z,16.90
2024-03-28T06:21:14.228Z,10.20
2024-03-28T06:26:16.904Z,13.30
2024-03-28T06:31:22.617Z,10.60
2024-03-28T06:36:25.265Z,11.80
2024-03-28T06:41:28.731Z,10.10
2024-03-28T06:46:31.446Z,11.10
2024-03-28T06:51:34.181Z,14.80
2024-03-28T06:56:36.870Z,14.90
2024-03-28T07:01:39.615Z,18.00
2024-03-28T07:06:42.474Z,11.20
2024-03-28T07:11:47.041Z,12.70
2024-03-28T07:16:50.146Z,16.40
2024-03-28T07:21:53.149Z,12.10
2024-03-28T07:26:56.123Z,15.00
2024-03-28T07:31:58.746Z,11.50
2024-03-28T07:37:01.755Z,10.90
2024-03-28T07:42:04.961Z,21.10
2024-03-28T07:47:07.572Z,12.10
2024-03-28T07:52:10.270Z,14.00
2024-03-28T07:57:13.158Z,16.00
2024-03-28T08:02:16.141Z,13.30
2024-03-28T08:07:18.893Z,16.70
2024-03-28T08:12:21.608Z,13.10
2024-03-28T08:17:24.215Z,11.40
2024-03-28T08:22:27.035Z,25.80
2024-03-28T08:27:31.168Z,17.00
2024-03-28T08:32:35.666Z,14.60
2024-03-28T08:37:40.374Z,13.70
2024-03-28T08:42:44.267Z,14.20
2024-03-28T08:47:47.188Z,14.70
2024-03-28T08:52:50.714Z,11.00
2024-03-28T08:57:54.183Z,10.20
2024-03-28T09:02:57.067Z,17.90
2024-03-28T09:07:59.852Z,25.40
2024-03-28T09:13:03.087Z,15.80
2024-03-28T09:18:06.890Z,28.60
2024-03-28T09:23:11.352Z,22.90
2024-03-28T09:28:14.808Z,21.60
2024-03-28T09:33:17.597Z,22.00
2024-03-28T09:38:20.315Z,24.30
2024-03-28T09:43:23.405Z,20.10
2024-03-28T09:48:26.863Z,23.00
2024-03-28T09:53:30.934Z,26.20
2024-03-28T09:58:36.354Z,32.60
2024-03-28T10:03:41.879Z,26.20
2024-03-28T10:08:45.597Z,21.80
2024-03-28T10:13:48.495Z,24.80
2024-03-28T10:18:55.384Z,24.20
2024-03-28T10:23:58.238Z,25.40
2024-03-28T10:29:01.624Z,25.10
2024-03-28T10:34:05.082Z,21.40
2024-03-28T10:39:13.012Z,32.00
2024-03-28T10:44:16.706Z,26.90
2024-03-28T10:49:27.138Z,36.30
2024-03-28T10:54:47.286Z,31.00
2024-03-28T10:59:51.554Z,23.30
2024-03-28T11:04:55.821Z,31.60
2024-03-28T11:10:00.593Z,25.90
2024-03-28T11:15:05.546Z,24.20
2024-03-28T11:25:27.637Z,24.60
2024-03-28T11:30:30.415Z,30.80
2024-03-28T11:35:33.710Z,25.50
2024-03-28T11:40:38.207Z,34.80
2024-03-28T11:45:59.368Z,26.30
2024-03-28T11:51:06.822Z,29.80
2024-03-28T11:56:14.479Z,32.30
2024-03-28T12:01:20.030Z,38.90
2024-03-28T12:06:25.118Z,30.60
2024-03-28T12:11:28.981Z,33.20
2024-03-28T12:16:31.853Z,30.30
2024-03-28T12:21:35.411Z,30.90
2024-03-28T12:26:38.147Z,31.70
2024-03-28T12:31:40.893Z,32.40
2024-03-28T12:36:43.561Z,31.80
2024-03-28T12:41:54.361Z,30.90
2024-03-28T12:46:57.270Z,45.40
2024-03-28T12:51:59.874Z,33.70
2024-03-28T12:57:04.596Z,40.10
2024-03-28T13:02:08.068Z,30.70
2024-03-28T13:07:13.323Z,30.90
2024-03-28T13:12:17.061Z,31.00
2024-03-28T13:17:19.753Z,26.40
2024-03-28T13:22:22.465Z,35.20
2024-03-28T13:27:43.443Z,36.40
2024-03-28T13:32:50.832Z,36.00
2024-03-28T13:37:54.032Z,33.60
2024-03-28T13:42:56.769Z,39.00
2024-03-28T13:48:00.219Z,30.10
2024-03-28T13:53:02.874Z,41.60
2024-03-28T13:58:05.659Z,34.10
2024-03-28T14:03:08.431Z,34.00
2024-03-28T14:08:12.138Z,33.20
2024-03-28T14:13:14.823Z,37.70
2024-03-28T14:18:18.763Z,47.80
2024-03-28T14:23:21.397Z,34.10
2024-03-28T14:28:24.901Z,34.40
2024-03-28T14:33:27.609Z,35.50
2024-03-28T14:38:30.289Z,36.60
2024-03-28T14:43:39.030Z,31.90
2024-03-28T14:48:42.357Z,36.90
2024-03-28T14:53:45.014Z,27.80
2024-03-28T14:58:47.604Z,30.90
2024-03-28T15:03:50.240Z,39.20
2024-03-28T15:08:53.002Z,41.60
2024-03-28T15:13:55.672Z,33.30
2024-03-28T15:18:59.472Z,43.90
2024-03-28T15:24:03.464Z,40.10
2024-03-28T15:29:09.296Z,36.70
2024-03-28T15:34:12.175Z,22.30
2024-03-28T15:39:15.097Z,22.40
2024-03-28T15:44:17.697Z,18.10
2024-03-28T15:49:20.330Z,14.00
2024-03-28T15:54:23.070Z,13.40
2024-03-28T15:59:25.805Z,13.80
2024-03-28T16:04:35.288Z,17.40
2024-03-28T16:09:38.062Z,13.50
2024-03-28T16:14:41.103Z,11.30
2024-03-28T16:19:43.957Z,13.50
2024-03-28T16:24:46.838Z,13.40
2024-03-28T16:29:50.234Z,5.60
2024-03-28T16:34:52.949Z,17.00
2024-03-28T16:39:56.424Z,12.30
2024-03-28T16:44:59.234Z,12.90
2024-03-28T16:50:02.345Z,14.30
2024-03-28T16:55:06.324Z,12.00
2024-03-28T17:00:09.591Z,10.90
2024-03-28T17:05:13.956Z,13.70
2024-03-28T17:10:18.470Z,14.00
2024-03-28T17:15:21.142Z,10.90
2024-03-28T17:20:23.909Z,12.10
2024-03-28T17:25:28.930Z,11.30
2024-03-28T17:30:31.682Z,9.80
2024-03-28T17:35:34.421Z,11.50
2024-03-28T17:40:37.585Z,10.90
2024-03-28T17:45:40.764Z,15.30
2024-03-28T17:50:47.024Z,16.40
2024-03-28T17:55:49.895Z,14.40
2024-03-28T18:00:52.629Z,14.00
2024-03-28T18:05:59.930Z,11.10
2024-03-28T18:11:02.610Z,13.20
2024-03-28T18:16:05.855Z,12.00
2024-03-28T18:21:08.582Z,13.50
2024-03-28T18:26:11.310Z,17.50
2024-03-28T18:31:14.018Z,9.30
2024-03-28T18:36:17.572Z,10.50
2024-03-28T18:41:20.329Z,12.30
2024-03-28T18:46:23.049Z,12.70
2024-03-28T18:51:26.272Z,10.50
2024-03-28T18:56:29.855Z,8.70
2024-03-28T19:01:35.384Z,8.30
2024-03-28T19:06:38.331Z,9.80
2024-03-28T19:11:40.978Z,10.10
2024-03-28T19:16:43.662Z,12.00
2024-03-28T19:21:46.414Z,11.50
2024-03-28T19:26:49.318Z,8.60
2024-03-28T19:31:51.997Z,14.50
2024-03-28T19:36:54.796Z,12.40
2024-03-28T19:41:57.584Z,15.40
2024-03-28T19:47:00.189Z,12.30
2024-03-28T19:52:02.856Z,13.80
2024-03-28T19:57:05.698Z,15.60
2024-03-28T20:02:08.405Z,14.80
2024-03-28T20:07:14.304Z,13.10
2024-03-28T20:12:17.399Z,14.10
2024-03-28T20:17:20.859Z,22.30
2024-03-28T20:22:24.579Z,22.60
2024-03-28T20:27:27.226Z,18.00
2024-03-28T20:32:32.485Z,16.50
2024-03-28T20:37:35.790Z,14.80
2024-03-28T20:42:38.407Z,17.10
2024-03-28T20:47:41.103Z,18.10
2024-03-28T20:52:43.874Z,22.20
2024-03-28T20:57:47.488Z,18.50
2024-03-28T21:02:51.210Z,17.30
2024-03-28T21:08:12.571Z,16.30
2024-03-28T21:13:19.671Z,15.90
2024-03-28T21:18:22.859Z,14.30
2024-03-28T21:23:25.515Z,14.40
2024-03-28T21:28:28.674Z,14.40
2024-03-28T21:33:31.269Z,18.90
2024-03-28T21:38:34.771Z,15.10
2024-03-28T21:43:40.986Z,14.20
2024-03-28T21:48:43.603Z,15.20
2024-03-28T21:53:46.476Z,14.60
2024-03-28T21:58:51.102Z,15.30
2024-03-28T22:03:53.736Z,19.60
2024-03-28T22:08:56.614Z,16.20
2024-03-28T22:13:59.252Z,14.70
2024-03-28T22:19:01.932Z,20.20
2024-03-28T22:24:05.312Z,15.10
2024-03-28T22:29:08.016Z,13.90
2024-03-28T22:34:10.659Z,8.40
2024-03-28T22:39:14.055Z,12.60
2024-03-28T22:44:16.600Z,13.10
2024-03-28T22:49:19.167Z,11.80
2024-03-28T22:54:21.819Z,11.10
2024-03-28T22:59:24.444Z,14.60
2024-03-28T23:04:27.023Z,15.60
2024-03-28T23:09:29.626Z,13.80
2024-03-28T23:14:32.228Z,11.60
2024-03-28T23:19:34.916Z,11.00
2024-03-28T23:24:37.566Z,15.90
2024-03-28T23:29:40.791Z,10.10
2024-03-28T23:34:43.370Z,10.10
2024-03-28T23:39:45.991Z,14.50
2024-03-28T23:44:48.721Z,14.00
2024-03-28T23:49:52.141Z,14.50
2024-03-28T23:54:54.728Z,15.70
2024-03-28T23:59:58.663Z,12.80
